createdAt,value
2022-12-23T00:01:58.831Z,100249.66
2022-12-23T00:04:33.355Z,100251.06
2022-12-23T00:07:07.727Z,100249.66
2022-12-23T00:09:42.412Z,100257.91
2022-12-23T00:12:34.180Z,100263.34
2022-12-23T00:15:10.036Z,100257.34
2022-12-23T00:17:46.678Z,100254.25
2022-12-23T00:20:22.216Z,100246.75
2022-12-23T00:23:08.751Z,100245.56
2022-12-23T00:25:45.028Z,100238.78
2022-12-23T00:28:22.280Z,100235.34
2022-12-23T00:31:01.549Z,100234.84
2022-12-23T00:33:38.821Z,100243.31
2022-12-23T00:36:15.622Z,100236.81
2022-12-23T00:39:08.282Z,100246.81
2022-12-23T00:42:00.503Z,100240.59
2022-12-23T00:44:34.720Z,100239.59
2022-12-23T00:47:29.159Z,100239.06
2022-12-23T00:50:10.158Z,100228.38
2022-12-23T00:52:44.649Z,100225.56
2022-12-23T00:55:18.855Z,100223.50
2022-12-23T00:57:53.459Z,100232.47
2022-12-23T01:00:41.523Z,100232.00
2022-12-23T01:03:34.468Z,100238.62
2022-12-23T01:06:10.237Z,100224.38
2022-12-23T01:08:45.047Z,100220.91
2022-12-23T01:11:19.233Z,100217.03
2022-12-23T01:13:53.868Z,100227.47
2022-12-23T01:16:28.134Z,100220.75
2022-12-23T01:19:02.591Z,100211.91
2022-12-23T01:21:38.638Z,100210.06
2022-12-23T01:24:13.085Z,100200.88
2022-12-23T01:26:47.249Z,100207.75
2022-12-23T01:29:21.763Z,100200.13
2022-12-23T01:31:56.002Z,100195.16
2022-12-23T01:34:36.391Z,100193.37
2022-12-23T01:37:12.592Z,100187.72
2022-12-23T01:39:47.223Z,100175.69
2022-12-23T01:42:39.667Z,100180.34
2022-12-23T01:45:19.728Z,100168.88
2022-12-23T01:47:57.256Z,100157.88
2022-12-23T01:50:36.738Z,100146.13
2022-12-23T01:53:16.410Z,100163.22
2022-12-23T01:55:54.328Z,100166.13
2022-12-23T01:58:33.346Z,100167.94
2022-12-23T02:01:26.444Z,100163.34
2022-12-23T02:04:05.745Z,100169.72
2022-12-23T02:06:59.165Z,100176.63
2022-12-23T02:09:36.857Z,100184.56
2022-12-23T02:12:32.686Z,100183.22
2022-12-23T02:15:42.555Z,100183.88
2022-12-23T02:18:52.758Z,100182.56
2022-12-23T02:22:14.630Z,100187.06
2022-12-23T02:25:15.881Z,100184.34
2022-12-23T02:28:13.352Z,100181.06
2022-12-23T02:30:57.801Z,100185.63
2022-12-23T02:33:50.245Z,100176.69
2022-12-23T02:36:35.851Z,100169.94
2022-12-23T02:39:14.966Z,100166.28
2022-12-23T02:41:58.627Z,100175.22
2022-12-23T02:44:40.739Z,100179.16
2022-12-23T02:47:21.272Z,100175.53
2022-12-23T02:49:57.090Z,100168.06
2022-12-23T02:52:33.881Z,100158.72
2022-12-23T02:55:13.627Z,100159.97
2022-12-23T02:57:51.104Z,100155.63
2022-12-23T03:00:26.024Z,100160.66
2022-12-23T03:03:01.796Z,100156.25
2022-12-23T03:05:41.237Z,100158.31
2022-12-23T03:08:18.537Z,100149.22
2022-12-23T03:11:04.508Z,100139.34
2022-12-23T03:14:05.097Z,100145.97
2022-12-23T03:16:51.537Z,100137.09
2022-12-23T03:19:32.847Z,100148.84
2022-12-23T03:22:16.523Z,100149.16
2022-12-23T03:24:57.010Z,100145.37
2022-12-23T03:27:38.142Z,100156.44
2022-12-23T03:30:15.690Z,100138.63
2022-12-23T03:32:55.163Z,100139.09
2022-12-23T03:35:35.399Z,100148.09
2022-12-23T03:38:14.303Z,100160.16
2022-12-23T03:40:54.025Z,100155.19
2022-12-23T03:43:34.350Z,100158.25
2022-12-23T03:46:13.779Z,100154.94
2022-12-23T03:48:53.069Z,100157.06
2022-12-23T03:51:33.400Z,100149.69
2022-12-23T03:54:13.878Z,100145.22
2022-12-23T03:56:54.439Z,100143.94
2022-12-23T03:59:30.607Z,100144.19
2022-12-23T04:02:10.090Z,100150.09
2022-12-23T04:05:17.639Z,100156.72
2022-12-23T04:07:58.124Z,100168.84
2022-12-23T04:10:35.781Z,100163.81
2022-12-23T04:13:10.203Z,100152.69
2022-12-23T04:15:45.029Z,100155.53
2022-12-23T04:18:19.271Z,100145.37
2022-12-23T04:20:54.161Z,100136.56
2022-12-23T04:23:29.677Z,100132.53
2022-12-23T04:26:04.123Z,100124.09
2022-12-23T04:28:38.474Z,100123.19
2022-12-23T04:31:13.054Z,100121.25
2022-12-23T04:33:47.259Z,100118.91
2022-12-23T04:36:21.701Z,100126.75
2022-12-23T04:38:57.668Z,100120.66
2022-12-23T04:41:32.110Z,100116.41
2022-12-23T04:44:06.625Z,100118.28
2022-12-23T04:46:41.391Z,100128.28
2022-12-23T04:49:15.547Z,100126.50
2022-12-23T04:51:50.566Z,100135.78
2022-12-23T04:54:26.220Z,100140.41
2022-12-23T04:57:00.655Z,100134.97
2022-12-23T04:59:35.251Z,100132.84
2022-12-23T05:02:10.089Z,100123.03
2022-12-23T05:04:44.474Z,100136.16
2022-12-23T05:07:19.078Z,100133.47
2022-12-23T05:09:54.984Z,100124.84
2022-12-23T05:12:30.213Z,100123.94
2022-12-23T05:15:04.409Z,100133.69
2022-12-23T05:17:38.874Z,100125.09
2022-12-23T05:20:13.283Z,100123.88
2022-12-23T05:22:47.756Z,100130.81
2022-12-23T05:25:23.321Z,100127.06
2022-12-23T05:27:58.072Z,100139.81
2022-12-23T05:30:35.089Z,100134.81
2022-12-23T05:33:09.582Z,100122.50
2022-12-23T05:35:43.747Z,100115.16
2022-12-23T05:38:18.243Z,100123.03
2022-12-23T05:40:54.084Z,100115.13
2022-12-23T05:43:28.671Z,100117.12
2022-12-23T05:46:03.057Z,100119.03
2022-12-23T05:48:37.574Z,100117.59
2022-12-23T05:51:11.780Z,100112.16
2022-12-23T05:53:46.237Z,100105.78
2022-12-23T05:56:21.710Z,100115.06
2022-12-23T05:58:56.161Z,100106.72
2022-12-23T06:01:30.610Z,100108.31
2022-12-23T06:04:05.497Z,100111.22
2022-12-23T06:06:39.704Z,100110.63
2022-12-23T06:09:14.395Z,100108.97
2022-12-23T06:11:50.290Z,100112.97
2022-12-23T06:14:28.861Z,100116.91
2022-12-23T06:17:03.658Z,100127.47
2022-12-23T06:19:38.134Z,100122.97
2022-12-23T06:22:12.204Z,100140.28
2022-12-23T06:24:46.654Z,100156.94
2022-12-23T06:27:22.132Z,100159.28
2022-12-23T06:29:56.932Z,100173.53
2022-12-23T06:32:37.767Z,100162.53
2022-12-23T06:35:13.499Z,100158.00
2022-12-23T06:37:47.604Z,100151.81
2022-12-23T06:40:22.571Z,100156.50
2022-12-23T06:42:58.090Z,100143.72
2022-12-23T06:45:32.545Z,100159.63
2022-12-23T06:48:07.301Z,100160.78
2022-12-23T06:50:45.874Z,100144.19
2022-12-23T06:53:20.653Z,100146.78
2022-12-23T06:56:00.937Z,100159.91
2022-12-23T06:58:37.689Z,100162.19
2022-12-23T07:01:12.568Z,100166.66
2022-12-23T07:03:47.128Z,100155.94
2022-12-23T07:06:21.788Z,100158.34
2022-12-23T07:08:55.971Z,100147.78
2022-12-23T07:11:30.737Z,100143.72
2022-12-23T07:14:06.338Z,100150.38
2022-12-23T07:16:40.904Z,100150.53
2022-12-23T07:19:15.366Z,100149.31
2022-12-23T07:21:49.976Z,100148.91
2022-12-23T07:24:24.181Z,100154.06
2022-12-23T07:26:59.053Z,100146.03
2022-12-23T07:29:34.655Z,100146.59
2022-12-23T07:32:09.418Z,100140.94
2022-12-23T07:34:43.544Z,100156.53
2022-12-23T07:37:17.920Z,100158.22
2022-12-23T07:39:54.698Z,100151.97
2022-12-23T07:42:46.548Z,100140.81
2022-12-23T07:45:22.951Z,100146.22
2022-12-23T07:47:59.168Z,100132.06
2022-12-23T07:50:34.870Z,100139.91
2022-12-23T07:53:09.395Z,100141.69
2022-12-23T07:55:43.511Z,100145.72
2022-12-23T07:58:17.960Z,100132.75
2022-12-23T08:01:00.887Z,100125.19
2022-12-23T08:03:36.044Z,100126.00
2022-12-23T08:06:12.833Z,100132.31
2022-12-23T08:08:48.198Z,100125.37
2022-12-23T08:11:22.323Z,100127.28
2022-12-23T08:13:56.754Z,100136.72
2022-12-23T08:16:36.573Z,100136.38
2022-12-23T08:19:14.078Z,100133.06
2022-12-23T08:21:48.391Z,100134.12
2022-12-23T08:24:23.100Z,100121.97
2022-12-23T08:26:58.317Z,100130.19
2022-12-23T08:29:36.384Z,100125.56
2022-12-23T08:32:12.230Z,100118.06
2022-12-23T08:34:46.749Z,100104.69
2022-12-23T08:37:20.918Z,100116.94
2022-12-23T08:39:59.659Z,100108.19
2022-12-23T08:42:33.844Z,100102.72
2022-12-23T08:45:09.358Z,100103.69
2022-12-23T08:47:44.996Z,100096.50
2022-12-23T08:50:20.093Z,100102.16
2022-12-23T08:52:54.179Z,100104.31
2022-12-23T08:55:28.711Z,100099.00
2022-12-23T08:58:03.000Z,100101.34
2022-12-23T09:00:41.268Z,100101.09
2022-12-23T09:03:17.492Z,100093.22
2022-12-23T09:05:52.013Z,100102.38
2022-12-23T09:08:26.186Z,100101.37
2022-12-23T09:11:00.896Z,100106.59
2022-12-23T09:13:36.029Z,100108.94
2022-12-23T09:16:11.332Z,100097.47
2022-12-23T09:18:47.106Z,100096.03
2022-12-23T09:21:23.864Z,100081.72
2022-12-23T09:23:58.046Z,100068.72
2022-12-23T09:26:33.180Z,100064.22
2022-12-23T09:29:07.371Z,100056.91
2022-12-23T09:31:41.866Z,100060.94
2022-12-23T09:34:17.399Z,100062.59
2022-12-23T09:36:55.245Z,100073.69
2022-12-23T09:39:29.781Z,100058.19
2022-12-23T09:42:08.609Z,100064.50
2022-12-23T09:45:00.190Z,100056.63
2022-12-23T09:47:35.993Z,100069.31
2022-12-23T09:50:21.414Z,100058.41
2022-12-23T09:53:01.820Z,100056.28
2022-12-23T09:55:47.414Z,100046.22
2022-12-23T09:58:30.296Z,100047.97
2022-12-23T10:01:14.917Z,100050.37
2022-12-23T10:04:05.745Z,100041.06
2022-12-23T10:06:42.690Z,100047.69
2022-12-23T10:09:18.856Z,100041.53
2022-12-23T10:11:53.547Z,100023.22
2022-12-23T10:14:31.346Z,100014.34
2022-12-23T10:17:14.464Z,100015.12
2022-12-23T10:19:51.205Z,100016.81
2022-12-23T10:22:33.245Z,100018.34
2022-12-23T10:25:16.301Z,100006.25
2022-12-23T10:27:50.490Z,100003.88
2022-12-23T10:30:54.012Z,99992.53
2022-12-23T10:33:24.414Z,100000.31
2022-12-23T10:36:06.483Z,100005.38
2022-12-23T10:39:03.090Z,100008.84
2022-12-23T10:41:46.484Z,100006.94
2022-12-23T10:44:47.422Z,99994.13
2022-12-23T10:47:32.639Z,99986.09
2022-12-23T10:50:29.681Z,100001.16
2022-12-23T10:53:07.705Z,100000.50
2022-12-23T10:55:43.650Z,99984.78
2022-12-23T10:58:19.387Z,99985.22
2022-12-23T11:00:56.714Z,99971.75
2022-12-23T11:03:33.783Z,99965.66
2022-12-23T11:06:10.932Z,99963.03
2022-12-23T11:08:45.534Z,99955.94
2022-12-23T11:11:21.137Z,99942.81
2022-12-23T11:13:55.619Z,99941.81
2022-12-23T11:16:30.346Z,99943.00
2022-12-23T11:19:07.801Z,99951.72
2022-12-23T11:21:55.604Z,99958.03
2022-12-23T11:24:38.032Z,99947.03
2022-12-23T11:27:17.323Z,99949.66
2022-12-23T11:29:55.785Z,99931.06
2022-12-23T11:32:30.753Z,99942.78
2022-12-23T11:35:05.605Z,99935.69
2022-12-23T11:37:44.237Z,99931.97
2022-12-23T11:40:26.877Z,99930.47
2022-12-23T11:43:04.381Z,99943.34
2022-12-23T11:45:39.884Z,99932.19
2022-12-23T11:48:28.868Z,99920.75
2022-12-23T11:51:05.604Z,99933.41
2022-12-23T11:53:44.269Z,99928.22
2022-12-23T11:56:18.922Z,99941.50
2022-12-23T11:58:58.296Z,99934.78
2022-12-23T12:01:33.726Z,99940.75
2022-12-23T12:04:10.510Z,99941.03
2022-12-23T12:06:52.693Z,99953.53
2022-12-23T12:09:32.939Z,99945.94
2022-12-23T12:12:13.615Z,99935.81
2022-12-23T12:14:50.599Z,99933.22
2022-12-23T12:17:28.654Z,99943.88
2022-12-23T12:20:11.840Z,99931.59
2022-12-23T12:22:52.927Z,99927.44
2022-12-23T12:25:39.648Z,99921.31
2022-12-23T12:28:19.880Z,99929.22
2022-12-23T12:30:59.157Z,99927.75
2022-12-23T12:33:39.694Z,99931.00
2022-12-23T12:36:22.339Z,99930.63
2022-12-23T12:39:00.225Z,99930.91
2022-12-23T12:41:39.404Z,99946.22
2022-12-23T12:44:31.643Z,99963.47
2022-12-23T12:47:28.578Z,99965.69
2022-12-23T12:50:17.348Z,99969.87
2022-12-23T12:52:55.341Z,99957.28
2022-12-23T12:55:33.835Z,99943.84
2022-12-23T12:58:16.886Z,99948.78
2022-12-23T13:01:04.203Z,99959.31
2022-12-23T13:04:13.154Z,99952.44
2022-12-23T13:06:55.333Z,99950.13
2022-12-23T13:09:38.468Z,99949.84
2022-12-23T13:12:23.600Z,99955.66
2022-12-23T13:15:06.648Z,99952.19
2022-12-23T13:17:46.878Z,99946.41
2022-12-23T13:20:34.087Z,99955.03
2022-12-23T13:23:42.484Z,99952.00
2022-12-23T13:26:19.433Z,99959.34
2022-12-23T13:29:06.345Z,99958.94
2022-12-23T13:31:50.394Z,99960.66
2022-12-23T13:34:37.332Z,99964.34
2022-12-23T13:37:24.241Z,99966.78
2022-12-23T13:40:16.018Z,99982.50
2022-12-23T13:42:56.823Z,99996.84
2022-12-23T13:45:37.502Z,99989.22
2022-12-23T13:48:32.964Z,99980.38
2022-12-23T13:51:13.862Z,99976.56
2022-12-23T13:54:04.170Z,99978.41
2022-12-23T13:56:42.639Z,99990.88
2022-12-23T13:59:17.886Z,100013.44
2022-12-23T14:01:52.907Z,100006.72
2022-12-23T14:04:36.659Z,99998.00
2022-12-23T14:07:21.968Z,99987.00
2022-12-23T14:10:00.574Z,99980.09
2022-12-23T14:12:38.678Z,99984.09
2022-12-23T14:15:29.342Z,99983.94
2022-12-23T14:18:19.276Z,99985.25
2022-12-23T14:21:09.368Z,99969.50
2022-12-23T14:24:04.261Z,99980.59
2022-12-23T14:27:01.249Z,99974.53
2022-12-23T14:29:47.253Z,99973.00
2022-12-23T14:32:26.026Z,99980.59
2022-12-23T14:35:22.081Z,99976.91
2022-12-23T14:38:24.991Z,99988.47
2022-12-23T14:41:15.943Z,99990.66
2022-12-23T14:43:58.195Z,100005.69
2022-12-23T14:46:56.632Z,99978.75
2022-12-23T14:49:46.252Z,99978.06
2022-12-23T14:52:49.283Z,99993.78
2022-12-23T14:55:46.701Z,99983.81
2022-12-23T14:58:33.118Z,99990.28
2022-12-23T15:01:14.100Z,99996.97
2022-12-23T15:03:50.782Z,100010.37
2022-12-23T15:06:34.227Z,100014.88
2022-12-23T15:09:10.987Z,100006.44
2022-12-23T15:11:45.633Z,100021.22
2022-12-23T15:14:29.541Z,100025.84
2022-12-23T15:17:19.264Z,100026.00
2022-12-23T15:19:54.638Z,100021.38
2022-12-23T15:22:32.744Z,100010.16
2022-12-23T15:25:19.657Z,100012.59
2022-12-23T15:28:01.490Z,100011.69
2022-12-23T15:30:47.175Z,100026.00
2022-12-23T15:36:30.803Z,100024.81
2022-12-23T15:39:16.909Z,100026.91
2022-12-23T15:41:51.139Z,100027.56
2022-12-23T15:44:27.647Z,100021.75
2022-12-23T15:47:02.248Z,100022.66
2022-12-23T15:49:38.299Z,100020.81
2022-12-23T15:52:19.827Z,100027.13
2022-12-23T15:54:59.959Z,100027.00
2022-12-23T15:57:34.469Z,100036.34
2022-12-23T16:00:20.898Z,100051.53
2022-12-23T16:03:00.996Z,100038.88
2022-12-23T16:05:39.596Z,100038.78
2022-12-23T16:08:30.223Z,100049.22
2022-12-23T16:11:15.073Z,100055.47
2022-12-23T16:13:58.746Z,100040.47
2022-12-23T16:16:45.267Z,100031.56
2022-12-23T16:19:40.348Z,100033.81
2022-12-23T16:22:26.908Z,100028.00
2022-12-23T16:25:12.251Z,100013.66
2022-12-23T16:27:49.289Z,100012.16
2022-12-23T16:30:29.280Z,100015.28
2022-12-23T16:33:07.001Z,100016.84
2022-12-23T16:35:43.499Z,100025.41
2022-12-23T16:38:21.055Z,100008.03
2022-12-23T16:40:57.610Z,100006.84
2022-12-23T16:43:32.389Z,100012.66
2022-12-23T16:46:08.495Z,100012.00
2022-12-23T16:48:49.300Z,100004.38
2022-12-23T16:51:24.771Z,99996.06
2022-12-23T16:54:00.407Z,99992.56
2022-12-23T16:56:37.112Z,99995.88
2022-12-23T16:59:11.674Z,100004.28
2022-12-23T17:01:48.604Z,100015.34
2022-12-23T17:04:23.012Z,100023.09
2022-12-23T17:06:57.529Z,100019.16
2022-12-23T17:09:33.117Z,100018.16
2022-12-23T17:12:12.322Z,100022.66
2022-12-23T17:14:51.248Z,100035.69
2022-12-23T17:17:26.550Z,100035.06
2022-12-23T17:20:00.826Z,100031.34
2022-12-23T17:22:36.969Z,100029.25
2022-12-23T17:25:14.124Z,100026.31
2022-12-23T17:27:50.153Z,100025.53
2022-12-23T17:30:26.253Z,100015.50
2022-12-23T17:33:01.957Z,100010.13
2022-12-23T17:35:36.178Z,100005.00
2022-12-23T17:38:13.701Z,100000.94
2022-12-23T17:40:51.626Z,99995.38
2022-12-23T17:43:27.384Z,99995.94
2022-12-23T17:46:04.051Z,99998.34
2022-12-23T17:48:44.992Z,99988.72
2022-12-23T17:51:20.944Z,100012.09
2022-12-23T17:53:58.264Z,100020.50
2022-12-23T17:56:34.889Z,100021.59
2022-12-23T17:59:09.753Z,100008.25
2022-12-23T18:01:44.236Z,100007.06
2022-12-23T18:04:18.793Z,100006.84
2022-12-23T18:06:52.932Z,100012.75
2022-12-23T19:51:51.878Z,100008.75
2022-12-23T19:54:26.892Z,100008.75
2022-12-23T19:57:01.184Z,100015.38
2022-12-23T19:59:35.945Z,100013.34
2022-12-23T20:02:15.106Z,100014.69
2022-12-23T20:04:50.258Z,100014.47
2022-12-23T20:07:25.938Z,100009.25
2022-12-23T20:10:02.181Z,100011.78
2022-12-23T20:12:36.733Z,99996.03
2022-12-23T20:15:11.637Z,99990.19
2022-12-23T20:17:46.160Z,100014.69
2022-12-23T20:20:24.827Z,100017.59
2022-12-23T20:23:01.344Z,100015.44
2022-12-23T20:25:36.058Z,100021.00
2022-12-23T20:28:10.806Z,100015.56
2022-12-23T20:30:48.299Z,100020.31
2022-12-23T20:33:22.866Z,100014.66
2022-12-23T20:35:57.408Z,100006.00
2022-12-23T20:38:35.123Z,100015.53
2022-12-23T20:41:11.273Z,100010.41
2022-12-23T20:43:56.919Z,100018.22
2022-12-23T20:46:40.727Z,100017.78
2022-12-23T20:49:14.985Z,100016.16
2022-12-23T20:51:49.517Z,100016.03
2022-12-23T20:54:32.017Z,100005.88
2022-12-23T20:57:07.853Z,100001.81
2022-12-23T20:59:43.064Z,99997.47
2022-12-23T21:02:18.342Z,99990.12
2022-12-23T21:04:52.585Z,99981.94
2022-12-23T21:07:28.906Z,99978.44
2022-12-23T21:10:05.307Z,99974.06
2022-12-23T21:12:41.257Z,99978.22
2022-12-23T21:15:15.737Z,99977.25
2022-12-23T21:17:50.460Z,99973.19
2022-12-23T21:20:24.849Z,99976.25
2022-12-23T21:22:59.605Z,99969.91
2022-12-23T21:25:35.202Z,99962.25
2022-12-23T21:28:09.677Z,99967.94
2022-12-23T21:30:45.480Z,99951.88
2022-12-23T21:33:20.080Z,99957.91
2022-12-23T21:35:54.319Z,99963.56
2022-12-23T21:38:32.896Z,99952.59
2022-12-23T21:41:14.233Z,99953.00
2022-12-23T21:43:49.206Z,99957.63
2022-12-23T21:46:24.542Z,99970.72
2022-12-23T21:49:00.157Z,99965.16
2022-12-23T21:51:40.109Z,99961.91
2022-12-23T21:54:15.194Z,99963.87
2022-12-23T21:56:50.717Z,99956.69
2022-12-23T21:59:29.677Z,99945.75
2022-12-23T22:02:07.098Z,99936.03
2022-12-23T22:04:41.618Z,99938.78
2022-12-23T22:07:15.790Z,99940.84
2022-12-23T22:09:53.893Z,99919.22
2022-12-23T22:12:29.480Z,99916.69
2022-12-23T22:15:11.161Z,99915.81
2022-12-23T22:17:46.120Z,99910.03
2022-12-23T22:20:21.124Z,99917.25
2022-12-23T22:22:55.635Z,99914.19
2022-12-23T22:25:30.133Z,99918.44
2022-12-23T22:28:06.479Z,99909.59
2022-12-23T22:30:42.362Z,99914.41
2022-12-23T22:33:16.904Z,99914.09
2022-12-23T22:35:55.919Z,99894.97
2022-12-23T22:38:30.097Z,99896.91
2022-12-23T22:41:04.797Z,99895.91
2022-12-23T22:43:40.368Z,99900.72
2022-12-23T22:46:15.351Z,99898.44
2022-12-23T22:48:50.439Z,99892.97
2022-12-23T22:51:26.709Z,99898.44
2022-12-23T22:54:03.009Z,99895.37
2022-12-23T22:56:37.886Z,99883.91
2022-12-23T22:59:20.351Z,99873.09
2022-12-23T23:01:55.451Z,99876.88
2022-12-23T23:04:29.649Z,99874.84
2022-12-23T23:07:04.192Z,99876.97
2022-12-23T23:09:43.333Z,99861.84
2022-12-23T23:12:17.999Z,99852.09
2022-12-23T23:14:53.532Z,99850.97
2022-12-23T23:17:29.805Z,99849.19
2022-12-23T23:20:04.098Z,99853.97
2022-12-23T23:22:41.574Z,99849.94
2022-12-23T23:25:15.970Z,99839.59
2022-12-23T23:27:50.445Z,99832.59
2022-12-23T23:30:26.142Z,99841.16
2022-12-23T23:33:00.984Z,99855.56
2022-12-23T23:35:35.232Z,99865.84
2022-12-23T23:38:10.401Z,99870.56
2022-12-23T23:40:44.616Z,99869.97
2022-12-23T23:43:19.520Z,99846.25
2022-12-23T23:45:55.384Z,99833.03
2022-12-23T23:48:30.136Z,99821.84
2022-12-23T23:51:06.146Z,99828.47
2022-12-23T23:53:40.736Z,99833.94
2022-12-23T23:56:15.789Z,99814.84
2022-12-23T23:58:52.623Z,99815.94
